Molly R Mccall — V7YY9 — position and weather

sailwx.info

Track history (hours):
 
Tides and Currents Weather Stations Pressure Air Temp Water Temp Dewpoint Dewpoint Depression Visibility Wind Speed Wind Dir Waves Ship Positions

Molly R Mccall

Last reported at 2017-Nov-19 06:37 UTC. Time now 2017-Nov-23 01:53 UTC.
Position N 35°54' E 014°31'.

Length 58 m; draft 2.1 m.

Type: Passenger vessel. MMSI: 538007648.

Date/timePositionNaut miles runAvg speedWind from/ knotsBaromVisibWave heightAir tempDewpointWater temp
2017-Nov-19 06:37N 35°54' E 014°31'1 6.3
2017-Nov-19 06:29N 35°54' E 014°32'3 5.4
2017-Nov-19 06:00N 35°57' E 014°33'3 6.3
2017-Nov-19 05:30N 35°60' E 014°31'3 5.5
2017-Nov-19 05:01N 36°02' E 014°29'3 6.0
2017-Nov-19 04:29N 36°04' E 014°27'2 4.7
2017-Nov-19 04:00N 36°06' E 014°24'2 4.7
2017-Nov-19 03:30N 36°07' E 014°22'2 4.7
2017-Nov-19 03:00N 36°08' E 014°20'2 4.6
2017-Nov-19 02:30N 36°10' E 014°17'2 4.6
2017-Nov-19 02:00N 36°11' E 014°15'2 4.6
2017-Nov-19 01:29N 36°12' E 014°12'2 4.6
2017-Nov-19 01:00N 36°13' E 014°10'2 4.7
2017-Nov-19 00:30N 36°14' E 014°07'2 4.8
2017-Nov-19 00:00N 36°16' E 014°05'2 4.9
2017-Nov-18 23:30N 36°17' E 014°02'3 5.3
2017-Nov-18 23:00N 36°18' E 013°59'3 5.5
2017-Nov-18 22:30N 36°19' E 013°56'3 5.5
2017-Nov-18 21:59N 36°20' E 013°53'3 5.4
2017-Nov-18 21:29N 36°21' E 013°50'  
2017-Nov-14 16:09N 36°00' W 005°15'213.9
2017-Nov-14 16:00N 35°60' W 005°18'714.4
2017-Nov-14 15:30N 35°58' W 005°26'  
2017-Nov-12 05:00N 30°14' W 013°51'5 9.3
2017-Nov-12 04:30N 30°10' W 013°53'5 9.2
2017-Nov-12 04:00N 30°06' W 013°56'84 9.3
2017-Nov-11 18:57N 28°51' W 014°40'4 9.1
2017-Nov-11 18:27N 28°47' W 014°43'4 9.0
2017-Nov-11 18:00N 28°44' W 014°45'5 9.0
2017-Nov-11 17:30N 28°40' W 014°48'6 9.0
2017-Nov-11 16:49N 28°35' W 014°52'13 9.0
2017-Nov-11 15:22N 28°25' W 015°01'5 9.1
2017-Nov-11 14:45N 28°21' W 015°06'2 9.0
2017-Nov-11 14:30N 28°19' W 015°08'5 8.9
2017-Nov-11 13:59N 28°16' W 015°11'4 8.9
2017-Nov-11 13:30N 28°13' W 015°14'4 8.8
2017-Nov-11 13:00N 28°09' W 015°18'4 8.9
2017-Nov-11 12:31N 28°07' W 015°22'2 4.8
2017-Nov-11 12:00N 28°08' W 015°25'0 0.0
2017-Nov-11 11:29N 28°08' W 015°25'0 0.0
2017-Nov-11 11:00N 28°08' W 015°25'0 0.0
2017-Nov-11 10:29N 28°08' W 015°25'0 0.0
2017-Nov-11 09:59N 28°08' W 015°25'0 0.0
2017-Nov-11 09:20N 28°08' W 015°25'0 0.0
2017-Nov-11 08:51N 28°08' W 015°25'0 0.0
2017-Nov-11 08:20N 28°08' W 015°25'0 0.0
2017-Nov-11 07:50N 28°08' W 015°25'0 0.0
2017-Nov-11 07:20N 28°08' W 015°25'0 0.0
2017-Nov-11 06:53N 28°08' W 015°25'0 0.0
2017-Nov-11 06:23N 28°08' W 015°25'0 0.0
2017-Nov-11 05:50N 28°08' W 015°25'0 0.0
2017-Nov-11 05:23N 28°08' W 015°25'0 0.0
2017-Nov-11 04:53N 28°08' W 015°25'0 0.0
2017-Nov-11 04:23N 28°08' W 015°25'0 0.0
2017-Nov-11 03:53N 28°08' W 015°25'0 0.0
2017-Nov-11 03:26N 28°08' W 015°25'0 0.0
2017-Nov-11 02:56N 28°08' W 015°25'0 0.0
2017-Nov-11 02:27N 28°08' W 015°25'0 0.0
2017-Nov-11 01:56N 28°08' W 015°25'0 0.0
2017-Nov-11 01:26N 28°08' W 015°25'0 0.0
2017-Nov-11 00:59N 28°08' W 015°25'0 0.0
2017-Nov-11 00:29N 28°08' W 015°25'0 0.0
2017-Nov-10 23:59N 28°08' W 015°25'0 0.0
2017-Nov-10 23:29N 28°08' W 015°25'0 0.0
2017-Nov-10 22:56N 28°08' W 015°25'0 0.0
2017-Nov-10 22:29N 28°08' W 015°25'0 0.0
2017-Nov-10 21:56N 28°08' W 015°25'0 0.0
2017-Nov-10 21:29N 28°08' W 015°25'0 0.0
2017-Nov-10 20:59N 28°08' W 015°25'0 0.0
2017-Nov-10 20:26N 28°08' W 015°25'0 0.0
2017-Nov-10 19:59N 28°08' W 015°25'0 0.0
2017-Nov-10 19:17N 28°08' W 015°25'0 0.0
2017-Nov-10 18:59N 28°08' W 015°25'0 0.0
2017-Nov-10 18:29N 28°08' W 015°25'0 0.0
2017-Nov-10 17:59N 28°08' W 015°25'0 0.0
2017-Nov-10 17:29N 28°08' W 015°25'0 0.0
2017-Nov-10 16:50N 28°08' W 015°25'0 0.0
2017-Nov-10 16:05N 28°08' W 015°25'0 0.0
2017-Nov-10 15:53N 28°08' W 015°25'0 0.0
2017-Nov-10 15:20N 28°08' W 015°25'0 0.0
2017-Nov-10 14:50N 28°08' W 015°25'0 0.0
2017-Nov-10 14:23N 28°08' W 015°25'0 0.0
2017-Nov-10 13:53N 28°08' W 015°25'0 0.0
2017-Nov-10 13:20N 28°08' W 015°25'0 0.0
2017-Nov-10 12:56N 28°08' W 015°25'0 0.0
2017-Nov-10 12:26N 28°08' W 015°25'0 0.0
2017-Nov-10 11:56N 28°08' W 015°25'0 0.0
2017-Nov-10 11:26N 28°08' W 015°25'0 0.0
2017-Nov-10 10:53N 28°08' W 015°25'0 0.0
2017-Nov-10 10:23N 28°08' W 015°25'0 0.0
2017-Nov-10 09:59N 28°08' W 015°25'0 0.0
2017-Nov-10 09:26N 28°08' W 015°25'0 0.0
2017-Nov-10 08:59N 28°08' W 015°25'0 0.0
2017-Nov-10 08:29N 28°08' W 015°25'0 0.0
2017-Nov-10 07:59N 28°08' W 015°25'0 0.0
2017-Nov-10 07:29N 28°08' W 015°25'0 0.0
2017-Nov-10 06:59N 28°08' W 015°25'0 0.0
2017-Nov-10 06:29N 28°08' W 015°25'0 0.0
2017-Nov-10 05:59N 28°08' W 015°25'0 0.0
2017-Nov-10 05:29N 28°08' W 015°25'0 0.0
2017-Nov-10 04:47N 28°08' W 015°25'0 0.0
2017-Nov-10 04:29N 28°08' W 015°25'0 0.0
2017-Nov-10 03:59N 28°08' W 015°25'0 0.0
2017-Nov-10 03:29N 28°08' W 015°25'0 0.0
2017-Nov-10 02:59N 28°08' W 015°25'0 0.0
2017-Nov-10 02:29N 28°08' W 015°25'0 0.0
2017-Nov-10 01:50N 28°08' W 015°25'0 0.0
2017-Nov-10 01:17N 28°08' W 015°25'0 0.0
2017-Nov-10 00:50N 28°08' W 015°25'0 0.0
2017-Nov-10 00:20N 28°08' W 015°25'0 0.0
2017-Nov-09 23:53N 28°08' W 015°25'0 0.0
2017-Nov-09 23:23N 28°08' W 015°25'0 0.0
2017-Nov-09 22:53N 28°08' W 015°25'0 0.0
2017-Nov-09 22:23N 28°08' W 015°25'0 0.0
2017-Nov-09 21:56N 28°08' W 015°25'0 0.0
2017-Nov-09 21:26N 28°08' W 015°25'0 0.0
2017-Nov-09 20:56N 28°08' W 015°25'0 0.0
2017-Nov-09 20:26N 28°08' W 015°25'0 0.0
2017-Nov-09 19:56N 28°08' W 015°25'0 0.0
2017-Nov-09 19:29N 28°08' W 015°25'0 0.0
2017-Nov-09 18:59N 28°08' W 015°25'0 0.0
2017-Nov-09 18:29N 28°08' W 015°25'0 0.0
2017-Nov-09 17:56N 28°08' W 015°25'0 0.0
2017-Nov-09 17:29N 28°08' W 015°25'0 0.0
2017-Nov-09 16:59N 28°08' W 015°25'0 0.0
2017-Nov-09 16:29N 28°08' W 015°25'0 0.0
2017-Nov-09 15:59N 28°08' W 015°25'0 0.0
2017-Nov-09 15:29N 28°08' W 015°25'0 0.0
2017-Nov-09 14:59N 28°08' W 015°25'0 0.0
2017-Nov-09 14:29N 28°08' W 015°25'0 0.0
2017-Nov-09 13:59N 28°08' W 015°25'0 0.0
2017-Nov-09 13:29N 28°08' W 015°25'0 0.0
2017-Nov-09 12:59N 28°08' W 015°25'0 0.0
2017-Nov-09 12:29N 28°08' W 015°25'0 0.0
2017-Nov-09 11:59N 28°08' W 015°25'0 0.0
2017-Nov-09 11:20N 28°08' W 015°25'0 0.0
2017-Nov-09 10:59N 28°08' W 015°25'0 0.0
2017-Nov-09 10:20N 28°08' W 015°25'0 0.0
2017-Nov-09 09:50N 28°08' W 015°25'0 0.0
2017-Nov-09 09:23N 28°08' W 015°25'0 0.0
2017-Nov-09 08:53N 28°08' W 015°25'0 0.0
2017-Nov-09 08:23N 28°08' W 015°25'0 0.0
2017-Nov-09 07:53N 28°08' W 015°25'0 0.0
2017-Nov-09 07:26N 28°08' W 015°25'0 0.0
2017-Nov-09 06:53N 28°08' W 015°25'  
Track history (hours):
 
Tides and Currents Weather Stations Pressure Air Temp Water Temp Dewpoint Dewpoint Depression Visibility Wind Speed Wind Dir Waves Ship Positions

Molly R Mccall

Last reported at 2017-Nov-19 06:37 UTC. Time now 2017-Nov-23 01:53 UTC.
Position N 35°54' E 014°31'.

Length 58 m; draft 2.1 m.

Type: Passenger vessel. MMSI: 538007648.

Date/timePositionNaut miles runAvg speedWind from/ knotsBaromVisibWave heightAir tempDewpointWater temp
2017-Nov-19 06:37N 35°54' E 014°31'1 6.3
2017-Nov-19 06:29N 35°54' E 014°32'3 5.4
2017-Nov-19 06:00N 35°57' E 014°33'3 6.3
2017-Nov-19 05:30N 35°60' E 014°31'3 5.5
2017-Nov-19 05:01N 36°02' E 014°29'3 6.0
2017-Nov-19 04:29N 36°04' E 014°27'2 4.7
2017-Nov-19 04:00N 36°06' E 014°24'2 4.7
2017-Nov-19 03:30N 36°07' E 014°22'2 4.7
2017-Nov-19 03:00N 36°08' E 014°20'2 4.6
2017-Nov-19 02:30N 36°10' E 014°17'2 4.6
2017-Nov-19 02:00N 36°11' E 014°15'2 4.6
2017-Nov-19 01:29N 36°12' E 014°12'2 4.6
2017-Nov-19 01:00N 36°13' E 014°10'2 4.7
2017-Nov-19 00:30N 36°14' E 014°07'2 4.8
2017-Nov-19 00:00N 36°16' E 014°05'2 4.9
2017-Nov-18 23:30N 36°17' E 014°02'3 5.3
2017-Nov-18 23:00N 36°18' E 013°59'3 5.5
2017-Nov-18 22:30N 36°19' E 013°56'3 5.5
2017-Nov-18 21:59N 36°20' E 013°53'3 5.4
2017-Nov-18 21:29N 36°21' E 013°50'  
2017-Nov-14 16:09N 36°00' W 005°15'213.9
2017-Nov-14 16:00N 35°60' W 005°18'714.4
2017-Nov-14 15:30N 35°58' W 005°26'  
2017-Nov-12 05:00N 30°14' W 013°51'5 9.3
2017-Nov-12 04:30N 30°10' W 013°53'5 9.2
2017-Nov-12 04:00N 30°06' W 013°56'84 9.3
2017-Nov-11 18:57N 28°51' W 014°40'4 9.1
2017-Nov-11 18:27N 28°47' W 014°43'4 9.0
2017-Nov-11 18:00N 28°44' W 014°45'5 9.0
2017-Nov-11 17:30N 28°40' W 014°48'6 9.0
2017-Nov-11 16:49N 28°35' W 014°52'13 9.0
2017-Nov-11 15:22N 28°25' W 015°01'5 9.1
2017-Nov-11 14:45N 28°21' W 015°06'2 9.0
2017-Nov-11 14:30N 28°19' W 015°08'5 8.9
2017-Nov-11 13:59N 28°16' W 015°11'4 8.9
2017-Nov-11 13:30N 28°13' W 015°14'4 8.8
2017-Nov-11 13:00N 28°09' W 015°18'4 8.9
2017-Nov-11 12:31N 28°07' W 015°22'2 4.8
2017-Nov-11 12:00N 28°08' W 015°25'0 0.0
2017-Nov-11 11:29N 28°08' W 015°25'0 0.0
2017-Nov-11 11:00N 28°08' W 015°25'0 0.0
2017-Nov-11 10:29N 28°08' W 015°25'0 0.0
2017-Nov-11 09:59N 28°08' W 015°25'0 0.0
2017-Nov-11 09:20N 28°08' W 015°25'0 0.0
2017-Nov-11 08:51N 28°08' W 015°25'0 0.0
2017-Nov-11 08:20N 28°08' W 015°25'0 0.0
2017-Nov-11 07:50N 28°08' W 015°25'0 0.0
2017-Nov-11 07:20N 28°08' W 015°25'0 0.0
2017-Nov-11 06:53N 28°08' W 015°25'0 0.0
2017-Nov-11 06:23N 28°08' W 015°25'0 0.0
2017-Nov-11 05:50N 28°08' W 015°25'0 0.0
2017-Nov-11 05:23N 28°08' W 015°25'0 0.0
2017-Nov-11 04:53N 28°08' W 015°25'0 0.0
2017-Nov-11 04:23N 28°08' W 015°25'0 0.0
2017-Nov-11 03:53N 28°08' W 015°25'0 0.0
2017-Nov-11 03:26N 28°08' W 015°25'0 0.0
2017-Nov-11 02:56N 28°08' W 015°25'0 0.0
2017-Nov-11 02:27N 28°08' W 015°25'0 0.0
2017-Nov-11 01:56N 28°08' W 015°25'0 0.0
2017-Nov-11 01:26N 28°08' W 015°25'0 0.0
2017-Nov-11 00:59N 28°08' W 015°25'0 0.0
2017-Nov-11 00:29N 28°08' W 015°25'0 0.0
2017-Nov-10 23:59N 28°08' W 015°25'0 0.0
2017-Nov-10 23:29N 28°08' W 015°25'0 0.0
2017-Nov-10 22:56N 28°08' W 015°25'0 0.0
2017-Nov-10 22:29N 28°08' W 015°25'0 0.0
2017-Nov-10 21:56N 28°08' W 015°25'0 0.0
2017-Nov-10 21:29N 28°08' W 015°25'0 0.0
2017-Nov-10 20:59N 28°08' W 015°25'0 0.0
2017-Nov-10 20:26N 28°08' W 015°25'0 0.0
2017-Nov-10 19:59N 28°08' W 015°25'0 0.0
2017-Nov-10 19:17N 28°08' W 015°25'0 0.0
2017-Nov-10 18:59N 28°08' W 015°25'0 0.0
2017-Nov-10 18:29N 28°08' W 015°25'0 0.0
2017-Nov-10 17:59N 28°08' W 015°25'0 0.0
2017-Nov-10 17:29N 28°08' W 015°25'0 0.0
2017-Nov-10 16:50N 28°08' W 015°25'0 0.0
2017-Nov-10 16:05N 28°08' W 015°25'0 0.0
2017-Nov-10 15:53N 28°08' W 015°25'0 0.0
2017-Nov-10 15:20N 28°08' W 015°25'0 0.0
2017-Nov-10 14:50N 28°08' W 015°25'0 0.0
2017-Nov-10 14:23N 28°08' W 015°25'0 0.0
2017-Nov-10 13:53N 28°08' W 015°25'0 0.0
2017-Nov-10 13:20N 28°08' W 015°25'0 0.0
2017-Nov-10 12:56N 28°08' W 015°25'0 0.0
2017-Nov-10 12:26N 28°08' W 015°25'0 0.0
2017-Nov-10 11:56N 28°08' W 015°25'0 0.0
2017-Nov-10 11:26N 28°08' W 015°25'0 0.0
2017-Nov-10 10:53N 28°08' W 015°25'0 0.0
2017-Nov-10 10:23N 28°08' W 015°25'0 0.0
2017-Nov-10 09:59N 28°08' W 015°25'0 0.0
2017-Nov-10 09:26N 28°08' W 015°25'0 0.0
2017-Nov-10 08:59N 28°08' W 015°25'0 0.0
2017-Nov-10 08:29N 28°08' W 015°25'0 0.0
2017-Nov-10 07:59N 28°08' W 015°25'0 0.0
2017-Nov-10 07:29N 28°08' W 015°25'0 0.0
2017-Nov-10 06:59N 28°08' W 015°25'0 0.0
2017-Nov-10 06:29N 28°08' W 015°25'0 0.0
2017-Nov-10 05:59N 28°08' W 015°25'0 0.0
2017-Nov-10 05:29N 28°08' W 015°25'0 0.0
2017-Nov-10 04:47N 28°08' W 015°25'0 0.0
2017-Nov-10 04:29N 28°08' W 015°25'0 0.0
2017-Nov-10 03:59N 28°08' W 015°25'0 0.0
2017-Nov-10 03:29N 28°08' W 015°25'0 0.0
2017-Nov-10 02:59N 28°08' W 015°25'0 0.0
2017-Nov-10 02:29N 28°08' W 015°25'0 0.0
2017-Nov-10 01:50N 28°08' W 015°25'0 0.0
2017-Nov-10 01:17N 28°08' W 015°25'0 0.0
2017-Nov-10 00:50N 28°08' W 015°25'0 0.0
2017-Nov-10 00:20N 28°08' W 015°25'0 0.0
2017-Nov-09 23:53N 28°08' W 015°25'0 0.0
2017-Nov-09 23:23N 28°08' W 015°25'0 0.0
2017-Nov-09 22:53N 28°08' W 015°25'0 0.0
2017-Nov-09 22:23N 28°08' W 015°25'0 0.0
2017-Nov-09 21:56N 28°08' W 015°25'0 0.0
2017-Nov-09 21:26N 28°08' W 015°25'0 0.0
2017-Nov-09 20:56N 28°08' W 015°25'0 0.0
2017-Nov-09 20:26N 28°08' W 015°25'0 0.0
2017-Nov-09 19:56N 28°08' W 015°25'0 0.0
2017-Nov-09 19:29N 28°08' W 015°25'0 0.0
2017-Nov-09 18:59N 28°08' W 015°25'0 0.0
2017-Nov-09 18:29N 28°08' W 015°25'0 0.0
2017-Nov-09 17:56N 28°08' W 015°25'0 0.0
2017-Nov-09 17:29N 28°08' W 015°25'0 0.0
2017-Nov-09 16:59N 28°08' W 015°25'0 0.0
2017-Nov-09 16:29N 28°08' W 015°25'0 0.0
2017-Nov-09 15:59N 28°08' W 015°25'0 0.0
2017-Nov-09 15:29N 28°08' W 015°25'0 0.0
2017-Nov-09 14:59N 28°08' W 015°25'0 0.0
2017-Nov-09 14:29N 28°08' W 015°25'0 0.0
2017-Nov-09 13:59N 28°08' W 015°25'0 0.0
2017-Nov-09 13:29N 28°08' W 015°25'0 0.0
2017-Nov-09 12:59N 28°08' W 015°25'0 0.0
2017-Nov-09 12:29N 28°08' W 015°25'0 0.0
2017-Nov-09 11:59N 28°08' W 015°25'0 0.0
2017-Nov-09 11:20N 28°08' W 015°25'0 0.0
2017-Nov-09 10:59N 28°08' W 015°25'0 0.0
2017-Nov-09 10:20N 28°08' W 015°25'0 0.0
2017-Nov-09 09:50N 28°08' W 015°25'0 0.0
2017-Nov-09 09:23N 28°08' W 015°25'0 0.0
2017-Nov-09 08:53N 28°08' W 015°25'0 0.0
2017-Nov-09 08:23N 28°08' W 015°25'0 0.0
2017-Nov-09 07:53N 28°08' W 015°25'0 0.0
2017-Nov-09 07:26N 28°08' W 015°25'0 0.0
2017-Nov-09 06:53N 28°08' W 015°25'  

Dump ship's entire track history